sensor_id;sensor_type;location;lat;lon;timestamp;temperature;humidity
71304;DHT22;59091;47.446;19.148;2023-10-13T00:01:55;16.69;78.35
71304;DHT22;59091;47.446;19.148;2023-10-13T00:04:24;16.67;78.33
71304;DHT22;59091;47.446;19.148;2023-10-13T00:06:56;16.67;78.25
71304;DHT22;59091;47.446;19.148;2023-10-13T00:09:23;16.64;78.39
71304;DHT22;59091;47.446;19.148;2023-10-13T00:12:00;16.60;78.51
71304;DHT22;59091;47.446;19.148;2023-10-13T00:14:26;16.60;78.50
71304;DHT22;59091;47.446;19.148;2023-10-13T00:17:04;16.57;78.45
71304;DHT22;59091;47.446;19.148;2023-10-13T00:19:38;16.53;78.23
71304;DHT22;59091;47.446;19.148;2023-10-13T00:22:10;16.50;78.34
71304;DHT22;59091;47.446;19.148;2023-10-13T00:24:38;16.47;78.41
71304;DHT22;59091;47.446;19.148;2023-10-13T00:27:15;16.48;78.25
71304;DHT22;59091;47.446;19.148;2023-10-13T00:29:58;16.28;78.58
71304;DHT22;59091;47.446;19.148;2023-10-13T00:32:53;16.34;78.43
71304;DHT22;59091;47.446;19.148;2023-10-13T00:35:21;16.31;78.38
71304;DHT22;59091;47.446;19.148;2023-10-13T00:38:05;16.31;78.43
71304;DHT22;59091;47.446;19.148;2023-10-13T00:40:40;16.28;78.44
71304;DHT22;59091;47.446;19.148;2023-10-13T00:43:05;16.27;78.67
71304;DHT22;59091;47.446;19.148;2023-10-13T00:45:56;16.24;78.62
71304;DHT22;59091;47.446;19.148;2023-10-13T00:50:57;16.23;78.99
71304;DHT22;59091;47.446;19.148;2023-10-13T00:53:25;16.21;79.30
71304;DHT22;59091;47.446;19.148;2023-10-13T00:55:51;16.23;79.26
71304;DHT22;59091;47.446;19.148;2023-10-13T00:58:17;16.24;79.27
71304;DHT22;59091;47.446;19.148;2023-10-13T01:00:48;16.25;79.25
71304;DHT22;59091;47.446;19.148;2023-10-13T01:03:21;16.25;79.18
71304;DHT22;59091;47.446;19.148;2023-10-13T01:05:51;16.24;78.98
71304;DHT22;59091;47.446;19.148;2023-10-13T01:08:30;16.23;78.89
71304;DHT22;59091;47.446;19.148;2023-10-13T01:10:59;16.25;78.79
71304;DHT22;59091;47.446;19.148;2023-10-13T01:13:25;16.20;78.86
71304;DHT22;59091;47.446;19.148;2023-10-13T01:15:52;16.21;78.72
71304;DHT22;59091;47.446;19.148;2023-10-13T01:18:18;16.21;78.74
71304;DHT22;59091;47.446;19.148;2023-10-13T01:20:43;16.20;78.91
71304;DHT22;59091;47.446;19.148;2023-10-13T01:23:12;16.21;79.01
71304;DHT22;59091;47.446;19.148;2023-10-13T01:25:45;16.21;79.03
71304;DHT22;59091;47.446;19.148;2023-10-13T01:28:11;16.21;79.07
71304;DHT22;59091;47.446;19.148;2023-10-13T01:30:43;16.18;79.07
71304;DHT22;59091;47.446;19.148;2023-10-13T01:33:16;16.18;79.07
71304;DHT22;59091;47.446;19.148;2023-10-13T01:35:41;16.18;79.08
71304;DHT22;59091;47.446;19.148;2023-10-13T01:38:13;16.20;79.22
71304;DHT22;59091;47.446;19.148;2023-10-13T01:40:38;16.21;79.20
71304;DHT22;59091;47.446;19.148;2023-10-13T01:43:04;16.21;79.22
71304;DHT22;59091;47.446;19.148;2023-10-13T01:45:30;16.23;79.14
71304;DHT22;59091;47.446;19.148;2023-10-13T01:47:55;16.21;79.16
71304;DHT22;59091;47.446;19.148;2023-10-13T01:50:22;16.20;79.22
71304;DHT22;59091;47.446;19.148;2023-10-13T01:52:55;16.21;79.42
71304;DHT22;59091;47.446;19.148;2023-10-13T01:55:42;16.21;79.56
71304;DHT22;59091;47.446;19.148;2023-10-13T01:58:14;16.23;79.44
71304;DHT22;59091;47.446;19.148;2023-10-13T02:00:44;16.23;79.55
71304;DHT22;59091;47.446;19.148;2023-10-13T02:03:11;16.21;79.61
71304;DHT22;59091;47.446;19.148;2023-10-13T02:05:44;16.24;79.56
71304;DHT22;59091;47.446;19.148;2023-10-13T02:08:17;16.20;79.59
71304;DHT22;59091;47.446;19.148;2023-10-13T02:10:53;16.21;79.67
71304;DHT22;59091;47.446;19.148;2023-10-13T02:13:19;16.20;79.69
71304;DHT22;59091;47.446;19.148;2023-10-13T02:15:48;16.23;79.64
71304;DHT22;59091;47.446;19.148;2023-10-13T02:18:15;16.24;79.66
71304;DHT22;59091;47.446;19.148;2023-10-13T02:20:55;16.25;79.71
71304;DHT22;59091;47.446;19.148;2023-10-13T02:23:22;16.27;79.64
71304;DHT22;59091;47.446;19.148;2023-10-13T02:25:49;16.27;79.69
71304;DHT22;59091;47.446;19.148;2023-10-13T02:28:19;16.24;79.71
71304;DHT22;59091;47.446;19.148;2023-10-13T02:30:53;16.27;79.79
71304;DHT22;59091;47.446;19.148;2023-10-13T02:33:18;16.28;79.84
71304;DHT22;59091;47.446;19.148;2023-10-13T02:35:48;16.28;79.75
71304;DHT22;59091;47.446;19.148;2023-10-13T02:38:20;16.27;79.87
71304;DHT22;59091;47.446;19.148;2023-10-13T02:41:20;16.25;79.91
71304;DHT22;59091;47.446;19.148;2023-10-13T02:43:51;16.14;80.24
71304;DHT22;59091;47.446;19.148;2023-10-13T02:46:18;16.24;80.28
71304;DHT22;59091;47.446;19.148;2023-10-13T02:48:47;16.24;80.16
71304;DHT22;59091;47.446;19.148;2023-10-13T02:51:19;16.25;80.03
71304;DHT22;59091;47.446;19.148;2023-10-13T02:53:56;16.27;80.04
71304;DHT22;59091;47.446;19.148;2023-10-13T02:56:29;16.28;79.89
71304;DHT22;59091;47.446;19.148;2023-10-13T02:58:55;16.27;79.91
71304;DHT22;59091;47.446;19.148;2023-10-13T03:01:31;16.27;80.07
71304;DHT22;59091;47.446;19.148;2023-10-13T03:04:00;16.28;80.10
71304;DHT22;59091;47.446;19.148;2023-10-13T03:06:26;16.35;80.15
71304;DHT22;59091;47.446;19.148;2023-10-13T03:08:59;16.34;80.10
71304;DHT22;59091;47.446;19.148;2023-10-13T03:11:41;16.35;80.10
71304;DHT22;59091;47.446;19.148;2023-10-13T03:14:20;16.35;80.03
71304;DHT22;59091;47.446;19.148;2023-10-13T03:17:02;16.40;79.99
71304;DHT22;59091;47.446;19.148;2023-10-13T03:19:28;16.38;79.99
71304;DHT22;59091;47.446;19.148;2023-10-13T03:22:02;16.40;80.03
71304;DHT22;59091;47.446;19.148;2023-10-13T03:24:41;16.40;80.05
71304;DHT22;59091;47.446;19.148;2023-10-13T03:27:14;16.38;79.96
71304;DHT22;59091;47.446;19.148;2023-10-13T03:29:44;16.40;79.92
71304;DHT22;59091;47.446;19.148;2023-10-13T03:32:10;16.44;79.95
71304;DHT22;59091;47.446;19.148;2023-10-13T03:34:43;16.44;80.00
71304;DHT22;59091;47.446;19.148;2023-10-13T03:37:17;16.47;80.03
71304;DHT22;59091;47.446;19.148;2023-10-13T03:39:44;16.48;80.03
71304;DHT22;59091;47.446;19.148;2023-10-13T03:42:11;16.45;80.14
71304;DHT22;59091;47.446;19.148;2023-10-13T03:44:45;16.47;80.16
71304;DHT22;59091;47.446;19.148;2023-10-13T03:47:12;16.50;80.09
71304;DHT22;59091;47.446;19.148;2023-10-13T03:49:44;16.51;79.98
71304;DHT22;59091;47.446;19.148;2023-10-13T03:52:10;16.53;80.09
71304;DHT22;59091;47.446;19.148;2023-10-13T03:54:39;16.53;80.19
71304;DHT22;59091;47.446;19.148;2023-10-13T03:57:07;16.54;80.14
71304;DHT22;59091;47.446;19.148;2023-10-13T03:59:37;16.51;80.30
71304;DHT22;59091;47.446;19.148;2023-10-13T04:02:03;16.51;80.50
71304;DHT22;59091;47.446;19.148;2023-10-13T04:04:37;16.51;80.55
71304;DHT22;59091;47.446;19.148;2023-10-13T04:07:23;16.54;80.48
71304;DHT22;59091;47.446;19.148;2023-10-13T04:09:51;16.51;80.42
71304;DHT22;59091;47.446;19.148;2023-10-13T04:12:35;16.58;80.41
71304;DHT22;59091;47.446;19.148;2023-10-13T04:15:20;16.57;80.42
71304;DHT22;59091;47.446;19.148;2023-10-13T04:17:48;16.60;80.35
71304;DHT22;59091;47.446;19.148;2023-10-13T04:20:16;16.60;80.26
71304;DHT22;59091;47.446;19.148;2023-10-13T04:22:53;16.61;80.28
71304;DHT22;59091;47.446;19.148;2023-10-13T04:25:25;16.63;80.34
71304;DHT22;59091;47.446;19.148;2023-10-13T04:28:11;16.63;80.45
71304;DHT22;59091;47.446;19.148;2023-10-13T04:30:47;16.61;80.42
71304;DHT22;59091;47.446;19.148;2023-10-13T04:33:19;16.61;80.63
71304;DHT22;59091;47.446;19.148;2023-10-13T04:36:07;16.64;80.49
71304;DHT22;59091;47.446;19.148;2023-10-13T04:38:50;16.61;80.55
71304;DHT22;59091;47.446;19.148;2023-10-13T04:41:27;16.61;80.72
71304;DHT22;59091;47.446;19.148;2023-10-13T04:44:10;16.58;81.01
71304;DHT22;59091;47.446;19.148;2023-10-13T04:46:48;16.63;80.95
71304;DHT22;59091;47.446;19.148;2023-10-13T04:49:14;16.61;80.98
71304;DHT22;59091;47.446;19.148;2023-10-13T04:52:05;16.51;81.18
71304;DHT22;59091;47.446;19.148;2023-10-13T04:54:37;16.51;81.41
71304;DHT22;59091;47.446;19.148;2023-10-13T04:57:20;16.57;81.22
71304;DHT22;59091;47.446;19.148;2023-10-13T05:00:13;16.38;81.75
71304;DHT22;59091;47.446;19.148;2023-10-13T05:02:46;16.31;82.19
71304;DHT22;59091;47.446;19.148;2023-10-13T05:05:30;16.33;82.18
71304;DHT22;59091;47.446;19.148;2023-10-13T05:08:31;16.35;82.25
71304;DHT22;59091;47.446;19.148;2023-10-13T05:11:14;16.28;82.26
71304;DHT22;59091;47.446;19.148;2023-10-13T05:14:00;16.41;82.03
71304;DHT22;59091;47.446;19.148;2023-10-13T05:16:44;16.47;81.82
71304;DHT22;59091;47.446;19.148;2023-10-13T05:19:28;16.35;81.93
71304;DHT22;59091;47.446;19.148;2023-10-13T05:22:12;16.48;81.84
71304;DHT22;59091;47.446;19.148;2023-10-13T05:24:56;16.40;82.23
71304;DHT22;59091;47.446;19.148;2023-10-13T05:27:40;16.34;82.28
71304;DHT22;59091;47.446;19.148;2023-10-13T05:30:24;16.41;82.16
71304;DHT22;59091;47.446;19.148;2023-10-13T05:33:08;16.44;82.17
71304;DHT22;59091;47.446;19.148;2023-10-13T05:35:52;16.50;82.08
71304;DHT22;59091;47.446;19.148;2023-10-13T05:38:36;16.50;82.16
71304;DHT22;59091;47.446;19.148;2023-10-13T05:41:20;16.47;82.45
71304;DHT22;59091;47.446;19.148;2023-10-13T05:44:04;16.37;82.55
71304;DHT22;59091;47.446;19.148;2023-10-13T05:46:48;16.51;82.29
71304;DHT22;59091;47.446;19.148;2023-10-13T05:49:31;16.45;82.27
71304;DHT22;59091;47.446;19.148;2023-10-13T05:52:15;16.64;83.79
71304;DHT22;59091;47.446;19.148;2023-10-13T05:54:48;16.89;83.15
71304;DHT22;59091;47.446;19.148;2023-10-13T05:57:32;16.88;81.87
71304;DHT22;59091;47.446;19.148;2023-10-13T06:00:16;16.92;81.18
71304;DHT22;59091;47.446;19.148;2023-10-13T06:03:00;16.74;81.50
71304;DHT22;59091;47.446;19.148;2023-10-13T06:05:44;16.84;81.79
71304;DHT22;59091;47.446;19.148;2023-10-13T06:08:27;16.81;81.71
71304;DHT22;59091;47.446;19.148;2023-10-13T06:11:12;16.94;81.28
71304;DHT22;59091;47.446;19.148;2023-10-13T06:13:55;16.81;81.65
71304;DHT22;59091;47.446;19.148;2023-10-13T06:16:39;17.39;81.61
71304;DHT22;59091;47.446;19.148;2023-10-13T06:19:23;17.60;80.38
71304;DHT22;59091;47.446;19.148;2023-10-13T06:22:07;17.49;79.72
71304;DHT22;59091;47.446;19.148;2023-10-13T06:24:51;17.81;79.58
71304;DHT22;59091;47.446;19.148;2023-10-13T06:27:35;17.91;78.52
71304;DHT22;59091;47.446;19.148;2023-10-13T06:30:19;17.90;78.34
71304;DHT22;59091;47.446;19.148;2023-10-13T06:32:45;17.88;78.56
71304;DHT22;59091;47.446;19.148;2023-10-13T06:35:11;17.88;78.55
71304;DHT22;59091;47.446;19.148;2023-10-13T06:37:52;17.87;78.58
71304;DHT22;59091;47.446;19.148;2023-10-13T06:40:18;17.83;78.76
71304;DHT22;59091;47.446;19.148;2023-10-13T06:42:52;17.78;78.98
71304;DHT22;59091;47.446;19.148;2023-10-13T06:45:19;17.73;79.10
71304;DHT22;59091;47.446;19.148;2023-10-13T06:47:46;17.69;79.38
71304;DHT22;59091;47.446;19.148;2023-10-13T06:50:15;17.67;80.00
71304;DHT22;59091;47.446;19.148;2023-10-13T06:52:44;17.76;79.49
71304;DHT22;59091;47.446;19.148;2023-10-13T06:55:10;17.76;79.15
71304;DHT22;59091;47.446;19.148;2023-10-13T06:58:00;17.73;79.72
71304;DHT22;59091;47.446;19.148;2023-10-13T07:00:26;17.77;79.58
71304;DHT22;59091;47.446;19.148;2023-10-13T07:02:59;17.74;79.26
71304;DHT22;59091;47.446;19.148;2023-10-13T07:05:49;17.86;79.41
71304;DHT22;59091;47.446;19.148;2023-10-13T07:08:15;17.96;79.26
71304;DHT22;59091;47.446;19.148;2023-10-13T07:10:52;18.08;78.62
71304;DHT22;59091;47.446;19.148;2023-10-13T07:13:31;18.24;78.23
71304;DHT22;59091;47.446;19.148;2023-10-13T07:15:57;18.36;77.90
71304;DHT22;59091;47.446;19.148;2023-10-13T07:18:37;18.45;77.38
71304;DHT22;59091;47.446;19.148;2023-10-13T07:21:10;18.45;77.13
71304;DHT22;59091;47.446;19.148;2023-10-13T07:23:37;18.53;76.67
71304;DHT22;59091;47.446;19.148;2023-10-13T07:26:02;18.49;76.75
71304;DHT22;59091;47.446;19.148;2023-10-13T07:28:31;18.66;76.33
71304;DHT22;59091;47.446;19.148;2023-10-13T07:31:04;18.62;76.50
71304;DHT22;59091;47.446;19.148;2023-10-13T07:33:29;18.70;76.06
71304;DHT22;59091;47.446;19.148;2023-10-13T07:36:05;18.68;75.74
71304;DHT22;59091;47.446;19.148;2023-10-13T07:38:53;18.79;75.79
71304;DHT22;59091;47.446;19.148;2023-10-13T07:41:37;18.92;75.40
71304;DHT22;59091;47.446;19.148;2023-10-13T07:44:03;18.92;75.29
71304;DHT22;59091;47.446;19.148;2023-10-13T07:46:31;18.90;75.30
71304;DHT22;59091;47.446;19.148;2023-10-13T07:49:00;18.92;75.33
71304;DHT22;59091;47.446;19.148;2023-10-13T07:51:35;18.93;75.31
71304;DHT22;59091;47.446;19.148;2023-10-13T07:54:15;18.83;75.80
71304;DHT22;59091;47.446;19.148;2023-10-13T07:56:48;18.73;76.41
71304;DHT22;59091;47.446;19.148;2023-10-13T07:59:22;18.75;76.30
71304;DHT22;59091;47.446;19.148;2023-10-13T08:01:54;18.73;76.44
71304;DHT22;59091;47.446;19.148;2023-10-13T08:04:37;18.75;76.38
71304;DHT22;59091;47.446;19.148;2023-10-13T08:07:03;18.76;76.50
71304;DHT22;59091;47.446;19.148;2023-10-13T08:09:38;18.66;76.46
71304;DHT22;59091;47.446;19.148;2023-10-13T08:12:08;18.66;76.47
71304;DHT22;59091;47.446;19.148;2023-10-13T08:14:38;18.69;76.46
71304;DHT22;59091;47.446;19.148;2023-10-13T08:17:08;18.79;76.43
71304;DHT22;59091;47.446;19.148;2023-10-13T08:19:38;18.77;76.25
71304;DHT22;59091;47.446;19.148;2023-10-13T08:22:15;18.83;76.18
71304;DHT22;59091;47.446;19.148;2023-10-13T08:24:50;18.90;75.90
71304;DHT22;59091;47.446;19.148;2023-10-13T08:27:18;19.02;75.69
71304;DHT22;59091;47.446;19.148;2023-10-13T08:30:00;19.11;75.65
71304;DHT22;59091;47.446;19.148;2023-10-13T08:32:27;19.14;75.92
71304;DHT22;59091;47.446;19.148;2023-10-13T08:34:54;19.30;75.42
71304;DHT22;59091;47.446;19.148;2023-10-13T08:37:20;19.35;75.28
71304;DHT22;59091;47.446;19.148;2023-10-13T08:39:52;19.46;75.09
71304;DHT22;59091;47.446;19.148;2023-10-13T08:42:44;19.50;74.96
71304;DHT22;59091;47.446;19.148;2023-10-13T08:45:13;19.58;74.26
71304;DHT22;59091;47.446;19.148;2023-10-13T08:47:49;19.64;74.00
71304;DHT22;59091;47.446;19.148;2023-10-13T08:50:37;19.71;74.02
71304;DHT22;59091;47.446;19.148;2023-10-13T08:53:25;19.82;73.61
71304;DHT22;59091;47.446;19.148;2023-10-13T08:56:04;20.00;73.04
71304;DHT22;59091;47.446;19.148;2023-10-13T08:58:29;20.06;72.91
71304;DHT22;59091;47.446;19.148;2023-10-13T09:01:15;20.15;72.64
71304;DHT22;59091;47.446;19.148;2023-10-13T09:04:11;20.26;72.15
71304;DHT22;59091;47.446;19.148;2023-10-13T09:07:03;20.34;71.84
71304;DHT22;59091;47.446;19.148;2023-10-13T09:12:25;20.56;71.72
71304;DHT22;59091;47.446;19.148;2023-10-13T09:15:11;20.67;71.25
71304;DHT22;59091;47.446;19.148;2023-10-13T09:17:57;20.70;70.65
71304;DHT22;59091;47.446;19.148;2023-10-13T09:20:40;20.81;70.55
71304;DHT22;59091;47.446;19.148;2023-10-13T09:23:14;20.88;70.34
71304;DHT22;59091;47.446;19.148;2023-10-13T09:25:53;20.91;70.84
71304;DHT22;59091;47.446;19.148;2023-10-13T09:28:34;20.95;70.53
71304;DHT22;59091;47.446;19.148;2023-10-13T09:31:02;21.00;70.09
71304;DHT22;59091;47.446;19.148;2023-10-13T09:33:30;21.00;70.17
71304;DHT22;59091;47.446;19.148;2023-10-13T09:36:06;21.14;70.08
71304;DHT22;59091;47.446;19.148;2023-10-13T09:38:38;21.12;69.50
71304;DHT22;59091;47.446;19.148;2023-10-13T09:41:13;21.38;69.89
71304;DHT22;59091;47.446;19.148;2023-10-13T09:43:46;21.59;69.43
71304;DHT22;59091;47.446;19.148;2023-10-13T09:46:18;21.73;68.58
71304;DHT22;59091;47.446;19.148;2023-10-13T09:48:45;21.86;67.62
71304;DHT22;59091;47.446;19.148;2023-10-13T09:51:13;22.06;67.74
71304;DHT22;59091;47.446;19.148;2023-10-13T09:53:40;22.06;67.45
71304;DHT22;59091;47.446;19.148;2023-10-13T09:56:21;22.17;67.04
71304;DHT22;59091;47.446;19.148;2023-10-13T09:59:03;22.23;66.97
71304;DHT22;59091;47.446;19.148;2023-10-13T10:01:37;22.25;66.48
71304;DHT22;59091;47.446;19.148;2023-10-13T10:04:09;22.44;65.71
71304;DHT22;59091;47.446;19.148;2023-10-13T10:06:37;22.52;65.47
71304;DHT22;59091;47.446;19.148;2023-10-13T10:09:10;22.81;64.97
71304;DHT22;59091;47.446;19.148;2023-10-13T10:15:00;22.84;64.46
71304;DHT22;59091;47.446;19.148;2023-10-13T10:17:39;22.88;64.54
71304;DHT22;59091;47.446;19.148;2023-10-13T10:20:05;23.03;64.17
71304;DHT22;59091;47.446;19.148;2023-10-13T10:22:40;23.02;64.64
71304;DHT22;59091;47.446;19.148;2023-10-13T10:25:12;23.03;65.29
71304;DHT22;59091;47.446;19.148;2023-10-13T10:27:57;23.03;65.52
71304;DHT22;59091;47.446;19.148;2023-10-13T10:30:27;22.99;65.14
71304;DHT22;59091;47.446;19.148;2023-10-13T10:32:57;23.01;65.02
71304;DHT22;59091;47.446;19.148;2023-10-13T10:35:27;22.99;65.01
71304;DHT22;59091;47.446;19.148;2023-10-13T10:38:13;22.92;65.58
71304;DHT22;59091;47.446;19.148;2023-10-13T10:41:04;22.82;65.85
71304;DHT22;59091;47.446;19.148;2023-10-13T10:46:26;22.94;65.81
71304;DHT22;59091;47.446;19.148;2023-10-13T10:48:53;22.98;65.64
71304;DHT22;59091;47.446;19.148;2023-10-13T10:51:27;23.01;65.11
71304;DHT22;59091;47.446;19.148;2023-10-13T10:54:00;23.09;65.10
71304;DHT22;59091;47.446;19.148;2023-10-13T10:56:37;23.11;64.88
71304;DHT22;59091;47.446;19.148;2023-10-13T10:59:05;23.15;64.81
71304;DHT22;59091;47.446;19.148;2023-10-13T11:01:31;23.20;64.53
71304;DHT22;59091;47.446;19.148;2023-10-13T11:04:12;23.29;64.32
71304;DHT22;59091;47.446;19.148;2023-10-13T11:06:38;23.32;64.19
71304;DHT22;59091;47.446;19.148;2023-10-13T11:09:11;23.38;64.20
71304;DHT22;59091;47.446;19.148;2023-10-13T11:11:52;23.45;64.47
71304;DHT22;59091;47.446;19.148;2023-10-13T11:14:26;23.56;63.40
71304;DHT22;59091;47.446;19.148;2023-10-13T11:16:53;23.67;63.17
71304;DHT22;59091;47.446;19.148;2023-10-13T11:19:34;23.78;63.97
71304;DHT22;59091;47.446;19.148;2023-10-13T11:22:27;24.04;63.42
71304;DHT22;59091;47.446;19.148;2023-10-13T11:25:03;24.21;62.48
71304;DHT22;59091;47.446;19.148;2023-10-13T11:27:36;24.44;61.49
71304;DHT22;59091;47.446;19.148;2023-10-13T11:30:17;24.54;61.27
71304;DHT22;59091;47.446;19.148;2023-10-13T11:33:07;24.68;61.11
71304;DHT22;59091;47.446;19.148;2023-10-13T11:35:37;24.71;60.58
71304;DHT22;59091;47.446;19.148;2023-10-13T11:38:35;24.89;60.45
71304;DHT22;59091;47.446;19.148;2023-10-13T11:41:08;25.03;60.20
71304;DHT22;59091;47.446;19.148;2023-10-13T11:43:41;25.28;59.86
71304;DHT22;59091;47.446;19.148;2023-10-13T11:46:24;25.41;59.41
71304;DHT22;59091;47.446;19.148;2023-10-13T11:49:06;25.67;58.22
71304;DHT22;59091;47.446;19.148;2023-10-13T11:51:42;25.73;58.83
71304;DHT22;59091;47.446;19.148;2023-10-13T11:54:16;25.85;58.73
71304;DHT22;59091;47.446;19.148;2023-10-13T11:56:43;25.95;57.72
71304;DHT22;59091;47.446;19.148;2023-10-13T11:59:10;25.99;57.12
71304;DHT22;59091;47.446;19.148;2023-10-13T12:01:50;25.99;56.70
71304;DHT22;59091;47.446;19.148;2023-10-13T12:04:35;26.11;56.47
71304;DHT22;59091;47.446;19.148;2023-10-13T12:07:14;26.16;56.38
71304;DHT22;59091;47.446;19.148;2023-10-13T12:09:43;26.28;56.26
71304;DHT22;59091;47.446;19.148;2023-10-13T12:12:24;26.33;56.17
71304;DHT22;59091;47.446;19.148;2023-10-13T12:14:50;26.37;56.38
71304;DHT22;59091;47.446;19.148;2023-10-13T12:17:20;26.47;55.92
71304;DHT22;59091;47.446;19.148;2023-10-13T12:20:00;26.53;55.30
71304;DHT22;59091;47.446;19.148;2023-10-13T12:22:26;26.46;55.52
71304;DHT22;59091;47.446;19.148;2023-10-13T12:25:01;26.56;55.16
71304;DHT22;59091;47.446;19.148;2023-10-13T12:27:30;26.63;55.12
71304;DHT22;59091;47.446;19.148;2023-10-13T12:30:11;26.63;54.88
71304;DHT22;59091;47.446;19.148;2023-10-13T12:32:41;26.67;55.06
71304;DHT22;59091;47.446;19.148;2023-10-13T12:35:19;26.79;54.97
71304;DHT22;59091;47.446;19.148;2023-10-13T12:38:01;26.84;54.67
71304;DHT22;59091;47.446;19.148;2023-10-13T12:40:41;26.90;54.69
71304;DHT22;59091;47.446;19.148;2023-10-13T12:43:25;26.94;54.50
71304;DHT22;59091;47.446;19.148;2023-10-13T12:46:09;27.03;54.01
71304;DHT22;59091;47.446;19.148;2023-10-13T12:48:53;27.04;53.24
71304;DHT22;59091;47.446;19.148;2023-10-13T12:51:39;27.04;53.20
71304;DHT22;59091;47.446;19.148;2023-10-13T12:54:05;27.04;52.84
71304;DHT22;59091;47.446;19.148;2023-10-13T12:56:32;26.98;51.53
71304;DHT22;59091;47.446;19.148;2023-10-13T12:58:58;27.00;51.09
71304;DHT22;59091;47.446;19.148;2023-10-13T13:01:26;26.97;51.25
71304;DHT22;59091;47.446;19.148;2023-10-13T13:03:58;26.96;50.85
71304;DHT22;59091;47.446;19.148;2023-10-13T13:06:27;26.90;50.20
71304;DHT22;59091;47.446;19.148;2023-10-13T13:08:59;26.82;50.36
71304;DHT22;59091;47.446;19.148;2023-10-13T13:11:25;26.88;49.98
71304;DHT22;59091;47.446;19.148;2023-10-13T13:13:53;26.88;49.27
71304;DHT22;59091;47.446;19.148;2023-10-13T13:16:19;26.90;49.63
71304;DHT22;59091;47.446;19.148;2023-10-13T13:18:50;26.83;50.03
71304;DHT22;59091;47.446;19.148;2023-10-13T13:21:15;26.91;49.59
71304;DHT22;59091;47.446;19.148;2023-10-13T13:23:46;26.84;50.43
71304;DHT22;59091;47.446;19.148;2023-10-13T13:26:12;26.90;49.65
71304;DHT22;59091;47.446;19.148;2023-10-13T13:28:45;26.90;49.79
71304;DHT22;59091;47.446;19.148;2023-10-13T13:31:15;26.88;49.71
71304;DHT22;59091;47.446;19.148;2023-10-13T13:33:41;26.94;49.37
71304;DHT22;59091;47.446;19.148;2023-10-13T13:36:09;26.93;49.47
71304;DHT22;59091;47.446;19.148;2023-10-13T13:38:40;26.91;49.30
71304;DHT22;59091;47.446;19.148;2023-10-13T13:41:13;26.93;48.73
71304;DHT22;59091;47.446;19.148;2023-10-13T13:43:45;26.97;48.06
71304;DHT22;59091;47.446;19.148;2023-10-13T13:46:26;26.90;47.97
71304;DHT22;59091;47.446;19.148;2023-10-13T13:48:58;26.84;48.59
71304;DHT22;59091;47.446;19.148;2023-10-13T13:51:29;26.87;48.42
71304;DHT22;59091;47.446;19.148;2023-10-13T13:53:56;26.87;48.50
71304;DHT22;59091;47.446;19.148;2023-10-13T13:56:22;26.86;48.31
71304;DHT22;59091;47.446;19.148;2023-10-13T13:58:51;26.90;47.73
71304;DHT22;59091;47.446;19.148;2023-10-13T14:01:18;26.91;47.79
71304;DHT22;59091;47.446;19.148;2023-10-13T14:03:54;26.96;48.02
71304;DHT22;59091;47.446;19.148;2023-10-13T14:06:27;27.00;47.64
71304;DHT22;59091;47.446;19.148;2023-10-13T14:08:57;26.98;47.55
71304;DHT22;59091;47.446;19.148;2023-10-13T14:11:30;26.96;47.52
71304;DHT22;59091;47.446;19.148;2023-10-13T14:14:08;26.91;47.57
71304;DHT22;59091;47.446;19.148;2023-10-13T14:16:38;26.91;47.80
71304;DHT22;59091;47.446;19.148;2023-10-13T14:19:13;26.84;47.13
71304;DHT22;59091;47.446;19.148;2023-10-13T14:21:44;26.77;47.25
71304;DHT22;59091;47.446;19.148;2023-10-13T14:24:10;26.61;48.41
71304;DHT22;59091;47.446;19.148;2023-10-13T14:26:40;26.64;48.07
71304;DHT22;59091;47.446;19.148;2023-10-13T14:29:08;26.63;48.03
71304;DHT22;59091;47.446;19.148;2023-10-13T14:31:35;26.59;48.46
71304;DHT22;59091;47.446;19.148;2023-10-13T14:34:05;26.49;46.83
71304;DHT22;59091;47.446;19.148;2023-10-13T14:36:32;26.49;46.49
71304;DHT22;59091;47.446;19.148;2023-10-13T14:39:00;26.45;46.16
71304;DHT22;59091;47.446;19.148;2023-10-13T14:41:26;26.37;45.97
71304;DHT22;59091;47.446;19.148;2023-10-13T14:43:52;26.35;46.00
71304;DHT22;59091;47.446;19.148;2023-10-13T14:46:18;26.29;45.68
71304;DHT22;59091;47.446;19.148;2023-10-13T14:48:51;26.24;45.80
71304;DHT22;59091;47.446;19.148;2023-10-13T14:51:16;26.22;45.21
71304;DHT22;59091;47.446;19.148;2023-10-13T14:53:42;26.15;45.74
71304;DHT22;59091;47.446;19.148;2023-10-13T14:56:15;26.11;46.19
71304;DHT22;59091;47.446;19.148;2023-10-13T14:58:42;26.05;46.66
71304;DHT22;59091;47.446;19.148;2023-10-13T15:01:15;25.94;47.58
71304;DHT22;59091;47.446;19.148;2023-10-13T15:03:45;25.86;47.95
71304;DHT22;59091;47.446;19.148;2023-10-13T15:06:22;25.74;48.60
71304;DHT22;59091;47.446;19.148;2023-10-13T15:08:51;25.63;49.65
71304;DHT22;59091;47.446;19.148;2023-10-13T15:11:19;25.48;50.39
71304;DHT22;59091;47.446;19.148;2023-10-13T15:13:44;25.37;51.12
71304;DHT22;59091;47.446;19.148;2023-10-13T15:16:17;25.24;51.62
71304;DHT22;59091;47.446;19.148;2023-10-13T15:18:46;25.04;52.25
71304;DHT22;59091;47.446;19.148;2023-10-13T15:23:52;24.90;53.54
71304;DHT22;59091;47.446;19.148;2023-10-13T15:26:19;24.77;54.15
71304;DHT22;59091;47.446;19.148;2023-10-13T15:28:49;24.66;55.05
71304;DHT22;59091;47.446;19.148;2023-10-13T15:31:18;24.55;56.29
71304;DHT22;59091;47.446;19.148;2023-10-13T15:33:59;24.41;56.60
71304;DHT22;59091;47.446;19.148;2023-10-13T15:36:26;24.35;56.62
71304;DHT22;59091;47.446;19.148;2023-10-13T15:38:52;24.22;57.03
71304;DHT22;59091;47.446;19.148;2023-10-13T15:41:25;24.11;57.44
71304;DHT22;59091;47.446;19.148;2023-10-13T15:43:51;24.00;58.23
71304;DHT22;59091;47.446;19.148;2023-10-13T15:46:19;23.88;59.04
71304;DHT22;59091;47.446;19.148;2023-10-13T15:48:48;23.80;59.01
71304;DHT22;59091;47.446;19.148;2023-10-13T15:51:14;23.64;59.66
71304;DHT22;59091;47.446;19.148;2023-10-13T15:53:40;23.56;60.22
71304;DHT22;59091;47.446;19.148;2023-10-13T15:56:06;23.45;60.22
71304;DHT22;59091;47.446;19.148;2023-10-13T15:58:46;23.33;60.14
71304;DHT22;59091;47.446;19.148;2023-10-13T16:01:14;23.24;60.64
71304;DHT22;59091;47.446;19.148;2023-10-13T16:03:43;23.11;61.30
71304;DHT22;59091;47.446;19.148;2023-10-13T16:06:17;22.99;61.47
71304;DHT22;59091;47.446;19.148;2023-10-13T16:08:43;22.87;61.35
71304;DHT22;59091;47.446;19.148;2023-10-13T16:11:13;22.65;61.58